Domov               UVHVVR             MKGP            O straneh              
ZDRAVSTVENO VARSTVO RASTLIN
  MREŽA AGROMET. POSTAJ
 ► PROGNOSTIČNA OBVESTILA
AGROMETEOROLOŠKI PODATKI -
ARSO
OBVLADOVANJE TVEGANJ ZARADI
NEUGODNIH VREMENSKIH RAZMER
  ► NARAVNE NESREČE
  ► SUŠA/MOČA
  ► NAMAKANJE
  ► ŽLED (gozdarstvo)
KARTOGRAFSKI PRIKAZI
SPLETNE POVEZAVE
PROJEKTI IN PUBLIKACIJE

AGROMETEOROLOŠKA MREŽA: VREMENSKE POSTAJE IN FENOLOŠKA OPAZOVANJA

Pregled podatkov za lokacijo Tacen, meteorološka postaja 27389

Pregled senzorjev na lokaciji

ID Ime Zadnja
vrednost
Datum
zadnje
spremembe
Tip
senzorja
2222 Padavine (mm) 0 mm 25.2.2018 16:00 Generic 0.2 mm
2225 Relativna vlaga 2 m (% RH) 52,01 % RH 25.2.2018 16:00 Generic 0 - 100 %
2226 Temperatura 2 m (°C) -3,61 °C 25.2.2018 16:00 Generic -40 - +60 °C

Pregled podatkov zadnjih 24 ur

Zap.
št.
Datum in čas Tacen
Padavine Relativna
vlaga
2
m
Temperatura
2
m
1 25.2.2018 16:00 0 52 -3,6
2 25.2.2018 15:30 0 51,9 -2,9
3 25.2.2018 15:00 0 49,9 -2,9
4 25.2.2018 14:30 0 50 -3,4
5 25.2.2018 14:00 0 47,1 -2,9
6 25.2.2018 13:30 0 47,8 -2,9
7 25.2.2018 13:00 0 48 -2,4
8 25.2.2018 12:30 0 48,2 -2,6
9 25.2.2018 12:00 0 47,7 -2,6
10 25.2.2018 11:30 0 46,2 -3,4
11 25.2.2018 11:00 0 48,8 -3
12 25.2.2018 10:30 0 49,4 -4,1
13 25.2.2018 10:00 0 52,3 -5
14 25.2.2018 09:30 0 55,3 -5,3
15 25.2.2018 09:00 0 59,2 -5,9
16 25.2.2018 08:30 0 62 -6,1
17 25.2.2018 08:00 0 65,4 -6,7
18 25.2.2018 07:30 0 64,1 -6,4
19 25.2.2018 07:00 0 63 -6,1
20 25.2.2018 06:30 0 61,3 -5,9
21 25.2.2018 06:00 0 59,3 -5,7
22 25.2.2018 05:30 0 58,3 -5,5
23 25.2.2018 05:00 0 57,9 -5,4
24 25.2.2018 04:30 0 57,8 -5,3
25 25.2.2018 04:00 0 57,9 -5,1
26 25.2.2018 03:30 0 59,2 -4,8
27 25.2.2018 03:00 0 62,5 -4,6
28 25.2.2018 02:30 0 62,8 -4,5
29 25.2.2018 02:00 0 63,4 -4,4
30 25.2.2018 01:30 0 64,8 -4,4
31 25.2.2018 01:00 0 65,2 -4,3
32 25.2.2018 00:30 0 66,3 -4
33 25.2.2018 00:00 0 67,3 -3,5
34 24.2.2018 23:30 0 66 -3,2
35 24.2.2018 23:00 0 64,2 -2,9
36 24.2.2018 22:30 0 63,7 -2,7
37 24.2.2018 22:00 0 65 -2,6
38 24.2.2018 21:30 0 66 -2,5
39 24.2.2018 21:00 0 66,6 -2,3
40 24.2.2018 20:30 0 67,9 -2,1
41 24.2.2018 20:00 0 70,6 -2
42 24.2.2018 19:30 0 68,7 -1,8
43 24.2.2018 19:00 0 79,6 -2
44 24.2.2018 18:30 0 82 -1,9
45 24.2.2018 18:00 0 83,2 -1,7
46 24.2.2018 17:30 0 82,7 -1,5
47 24.2.2018 17:00 0 82 -1,1
48 24.2.2018 16:30 0 81,6 -0,9
© 2011 Ministrstvo za kmetijstvo, gozdarstvo in prehrano. Vse pravice pridržane.